sensor_id;sensor_type;location;lat;lon;timestamp;temperature;humidity
16160;DHT22;8185;57.818;15.224;2022-07-01T00:00:35;18.30;99.90
16160;DHT22;8185;57.818;15.224;2022-07-01T00:03:02;18.30;99.90
16160;DHT22;8185;57.818;15.224;2022-07-01T00:05:30;18.30;99.90
16160;DHT22;8185;57.818;15.224;2022-07-01T00:07:57;18.30;99.90
16160;DHT22;8185;57.818;15.224;2022-07-01T00:10:25;18.30;99.90
16160;DHT22;8185;57.818;15.224;2022-07-01T00:12:52;18.30;99.90
16160;DHT22;8185;57.818;15.224;2022-07-01T00:15:21;18.30;99.90
16160;DHT22;8185;57.818;15.224;2022-07-01T00:17:49;18.20;99.90
16160;DHT22;8185;57.818;15.224;2022-07-01T00:20:16;18.20;99.90
16160;DHT22;8185;57.818;15.224;2022-07-01T00:22:44;18.20;99.90
16160;DHT22;8185;57.818;15.224;2022-07-01T00:25:11;18.20;99.90
16160;DHT22;8185;57.818;15.224;2022-07-01T00:27:39;18.10;99.90
16160;DHT22;8185;57.818;15.224;2022-07-01T00:30:07;18.10;99.90
16160;DHT22;8185;57.818;15.224;2022-07-01T00:32:36;18.10;99.90
16160;DHT22;8185;57.818;15.224;2022-07-01T00:35:04;18.00;99.90
16160;DHT22;8185;57.818;15.224;2022-07-01T00:37:32;18.00;99.90
16160;DHT22;8185;57.818;15.224;2022-07-01T00:39:59;18.00;99.90
16160;DHT22;8185;57.818;15.224;2022-07-01T00:42:26;18.10;99.90
16160;DHT22;8185;57.818;15.224;2022-07-01T00:44:54;18.10;99.90
16160;DHT22;8185;57.818;15.224;2022-07-01T00:47:21;18.10;99.90
16160;DHT22;8185;57.818;15.224;2022-07-01T00:49:50;18.10;99.90
16160;DHT22;8185;57.818;15.224;2022-07-01T00:52:18;18.10;99.90
16160;DHT22;8185;57.818;15.224;2022-07-01T00:54:45;18.20;99.90
16160;DHT22;8185;57.818;15.224;2022-07-01T00:57:16;18.20;99.90
16160;DHT22;8185;57.818;15.224;2022-07-01T00:59:43;18.20;99.90
16160;DHT22;8185;57.818;15.224;2022-07-01T01:02:11;18.20;99.90
16160;DHT22;8185;57.818;15.224;2022-07-01T01:04:38;18.20;99.90
16160;DHT22;8185;57.818;15.224;2022-07-01T01:07:07;18.10;99.90
16160;DHT22;8185;57.818;15.224;2022-07-01T01:09:35;18.20;99.90
16160;DHT22;8185;57.818;15.224;2022-07-01T01:12:02;18.10;99.90
16160;DHT22;8185;57.818;15.224;2022-07-01T01:14:30;18.10;99.90
16160;DHT22;8185;57.818;15.224;2022-07-01T01:17:10;18.10;99.90
16160;DHT22;8185;57.818;15.224;2022-07-01T01:19:38;18.10;99.90
16160;DHT22;8185;57.818;15.224;2022-07-01T01:22:07;18.10;99.90
16160;DHT22;8185;57.818;15.224;2022-07-01T01:24:34;18.10;99.90
16160;DHT22;8185;57.818;15.224;2022-07-01T01:27:03;18.10;99.90
16160;DHT22;8185;57.818;15.224;2022-07-01T01:29:30;18.10;99.90
16160;DHT22;8185;57.818;15.224;2022-07-01T01:31:58;18.10;99.90
16160;DHT22;8185;57.818;15.224;2022-07-01T01:34:25;18.10;99.90
16160;DHT22;8185;57.818;15.224;2022-07-01T01:36:53;18.10;99.90
16160;DHT22;8185;57.818;15.224;2022-07-01T01:39:21;18.10;99.90
16160;DHT22;8185;57.818;15.224;2022-07-01T01:41:49;18.10;99.90
16160;DHT22;8185;57.818;15.224;2022-07-01T01:44:16;18.10;99.90
16160;DHT22;8185;57.818;15.224;2022-07-01T01:46:44;18.10;99.90
16160;DHT22;8185;57.818;15.224;2022-07-01T01:49:12;18.10;99.90
16160;DHT22;8185;57.818;15.224;2022-07-01T01:51:39;18.10;99.90
16160;DHT22;8185;57.818;15.224;2022-07-01T01:54:07;18.10;99.90
16160;DHT22;8185;57.818;15.224;2022-07-01T01:56:36;18.10;99.90
16160;DHT22;8185;57.818;15.224;2022-07-01T01:59:03;18.10;99.90
16160;DHT22;8185;57.818;15.224;2022-07-01T02:01:30;18.10;99.90
16160;DHT22;8185;57.818;15.224;2022-07-01T02:03:58;18.10;99.90
16160;DHT22;8185;57.818;15.224;2022-07-01T02:06:26;18.10;99.90
16160;DHT22;8185;57.818;15.224;2022-07-01T02:08:53;18.10;99.90
16160;DHT22;8185;57.818;15.224;2022-07-01T02:11:23;18.10;99.90
16160;DHT22;8185;57.818;15.224;2022-07-01T02:13:53;18.10;99.90
16160;DHT22;8185;57.818;15.224;2022-07-01T02:16:20;18.10;99.90
16160;DHT22;8185;57.818;15.224;2022-07-01T02:18:47;18.10;99.90
16160;DHT22;8185;57.818;15.224;2022-07-01T02:21:15;18.10;99.90
16160;DHT22;8185;57.818;15.224;2022-07-01T02:23:43;18.10;99.90
16160;DHT22;8185;57.818;15.224;2022-07-01T02:26:10;18.00;99.90
16160;DHT22;8185;57.818;15.224;2022-07-01T02:28:38;18.10;99.90
16160;DHT22;8185;57.818;15.224;2022-07-01T02:31:07;18.10;99.90
16160;DHT22;8185;57.818;15.224;2022-07-01T02:33:34;18.10;99.90
16160;DHT22;8185;57.818;15.224;2022-07-01T02:36:01;18.10;99.90
16160;DHT22;8185;57.818;15.224;2022-07-01T02:38:29;18.00;99.90
16160;DHT22;8185;57.818;15.224;2022-07-01T02:40:56;18.10;99.90
16160;DHT22;8185;57.818;15.224;2022-07-01T02:43:24;18.00;99.90
16160;DHT22;8185;57.818;15.224;2022-07-01T02:45:52;18.00;99.90
16160;DHT22;8185;57.818;15.224;2022-07-01T02:48:20;18.00;99.90
16160;DHT22;8185;57.818;15.224;2022-07-01T02:50:48;18.00;99.90
16160;DHT22;8185;57.818;15.224;2022-07-01T02:53:15;18.00;99.90
16160;DHT22;8185;57.818;15.224;2022-07-01T02:55:42;18.00;99.90
16160;DHT22;8185;57.818;15.224;2022-07-01T02:58:09;18.00;99.90
16160;DHT22;8185;57.818;15.224;2022-07-01T03:00:37;18.00;99.90
16160;DHT22;8185;57.818;15.224;2022-07-01T03:03:04;18.00;99.90
16160;DHT22;8185;57.818;15.224;2022-07-01T03:05:33;18.00;99.90
16160;DHT22;8185;57.818;15.224;2022-07-01T03:08:00;18.00;99.90
16160;DHT22;8185;57.818;15.224;2022-07-01T03:10:28;18.00;99.90
16160;DHT22;8185;57.818;15.224;2022-07-01T03:12:55;18.00;99.90
16160;DHT22;8185;57.818;15.224;2022-07-01T03:15:24;18.10;99.90
16160;DHT22;8185;57.818;15.224;2022-07-01T03:17:51;18.00;99.90
16160;DHT22;8185;57.818;15.224;2022-07-01T03:20:19;17.90;99.90
16160;DHT22;8185;57.818;15.224;2022-07-01T03:22:48;17.90;99.90
16160;DHT22;8185;57.818;15.224;2022-07-01T03:25:15;17.90;99.90
16160;DHT22;8185;57.818;15.224;2022-07-01T03:27:43;17.90;99.90
16160;DHT22;8185;57.818;15.224;2022-07-01T03:30:14;17.80;99.90
16160;DHT22;8185;57.818;15.224;2022-07-01T03:32:43;17.60;99.90
16160;DHT22;8185;57.818;15.224;2022-07-01T03:35:10;17.50;99.90
16160;DHT22;8185;57.818;15.224;2022-07-01T03:38:05;17.40;99.90
16160;DHT22;8185;57.818;15.224;2022-07-01T03:40:33;17.30;99.90
16160;DHT22;8185;57.818;15.224;2022-07-01T03:43:00;17.20;99.90
16160;DHT22;8185;57.818;15.224;2022-07-01T03:45:28;17.20;99.90
16160;DHT22;8185;57.818;15.224;2022-07-01T03:47:55;17.20;99.90
16160;DHT22;8185;57.818;15.224;2022-07-01T03:50:24;17.20;99.90
16160;DHT22;8185;57.818;15.224;2022-07-01T03:52:52;17.10;99.90
16160;DHT22;8185;57.818;15.224;2022-07-01T03:55:35;17.10;99.90
16160;DHT22;8185;57.818;15.224;2022-07-01T03:58:02;17.10;99.90
16160;DHT22;8185;57.818;15.224;2022-07-01T04:00:30;17.10;99.90
16160;DHT22;8185;57.818;15.224;2022-07-01T04:03:00;17.20;99.90
16160;DHT22;8185;57.818;15.224;2022-07-01T04:05:27;17.20;99.90
16160;DHT22;8185;57.818;15.224;2022-07-01T04:07:55;17.20;99.90
16160;DHT22;8185;57.818;15.224;2022-07-01T04:10:22;17.20;99.90
16160;DHT22;8185;57.818;15.224;2022-07-01T04:12:52;17.20;99.90
16160;DHT22;8185;57.818;15.224;2022-07-01T04:15:19;17.30;99.90
16160;DHT22;8185;57.818;15.224;2022-07-01T04:17:46;17.30;99.90
16160;DHT22;8185;57.818;15.224;2022-07-01T04:20:14;17.30;99.90
16160;DHT22;8185;57.818;15.224;2022-07-01T04:22:41;17.30;99.90
16160;DHT22;8185;57.818;15.224;2022-07-01T04:25:08;17.30;99.90
16160;DHT22;8185;57.818;15.224;2022-07-01T04:27:35;17.30;99.90
16160;DHT22;8185;57.818;15.224;2022-07-01T04:30:04;17.30;99.90
16160;DHT22;8185;57.818;15.224;2022-07-01T04:32:32;17.30;99.90
16160;DHT22;8185;57.818;15.224;2022-07-01T04:34:59;17.30;99.90
16160;DHT22;8185;57.818;15.224;2022-07-01T04:37:26;17.30;99.90
16160;DHT22;8185;57.818;15.224;2022-07-01T04:39:54;17.30;99.90
16160;DHT22;8185;57.818;15.224;2022-07-01T04:42:24;17.30;99.90
16160;DHT22;8185;57.818;15.224;2022-07-01T04:44:51;17.40;99.90
16160;DHT22;8185;57.818;15.224;2022-07-01T04:47:19;17.40;99.90
16160;DHT22;8185;57.818;15.224;2022-07-01T04:49:48;17.50;99.90
16160;DHT22;8185;57.818;15.224;2022-07-01T04:52:15;17.50;99.90
16160;DHT22;8185;57.818;15.224;2022-07-01T04:54:42;17.50;99.90
16160;DHT22;8185;57.818;15.224;2022-07-01T04:57:10;17.60;99.90
16160;DHT22;8185;57.818;15.224;2022-07-01T04:59:37;17.70;99.90
16160;DHT22;8185;57.818;15.224;2022-07-01T05:02:04;17.80;99.90
16160;DHT22;8185;57.818;15.224;2022-07-01T05:04:33;17.80;99.90
16160;DHT22;8185;57.818;15.224;2022-07-01T05:07:00;17.80;99.90
16160;DHT22;8185;57.818;15.224;2022-07-01T05:09:27;17.80;99.90
16160;DHT22;8185;57.818;15.224;2022-07-01T05:11:55;17.90;99.90
16160;DHT22;8185;57.818;15.224;2022-07-01T05:14:22;17.90;99.90
16160;DHT22;8185;57.818;15.224;2022-07-01T05:16:49;18.00;99.90
16160;DHT22;8185;57.818;15.224;2022-07-01T05:19:17;18.00;99.90
16160;DHT22;8185;57.818;15.224;2022-07-01T05:22:03;18.00;99.90
16160;DHT22;8185;57.818;15.224;2022-07-01T05:24:31;18.00;99.90
16160;DHT22;8185;57.818;15.224;2022-07-01T05:27:00;18.00;99.90
16160;DHT22;8185;57.818;15.224;2022-07-01T05:29:30;18.00;99.90
16160;DHT22;8185;57.818;15.224;2022-07-01T05:31:57;18.00;99.90
16160;DHT22;8185;57.818;15.224;2022-07-01T05:34:24;18.10;99.90
16160;DHT22;8185;57.818;15.224;2022-07-01T05:36:51;18.10;99.90
16160;DHT22;8185;57.818;15.224;2022-07-01T05:39:20;18.20;99.90
16160;DHT22;8185;57.818;15.224;2022-07-01T05:41:47;18.30;99.90
16160;DHT22;8185;57.818;15.224;2022-07-01T05:44:15;18.30;99.90
16160;DHT22;8185;57.818;15.224;2022-07-01T05:46:44;18.40;99.90
16160;DHT22;8185;57.818;15.224;2022-07-01T05:49:11;18.50;99.90
16160;DHT22;8185;57.818;15.224;2022-07-01T05:51:38;18.50;99.90
16160;DHT22;8185;57.818;15.224;2022-07-01T05:54:06;18.60;99.90
16160;DHT22;8185;57.818;15.224;2022-07-01T05:56:35;18.70;99.90
16160;DHT22;8185;57.818;15.224;2022-07-01T05:59:02;18.80;99.90
16160;DHT22;8185;57.818;15.224;2022-07-01T06:01:29;19.00;99.90
16160;DHT22;8185;57.818;15.224;2022-07-01T06:03:57;19.00;99.90
16160;DHT22;8185;57.818;15.224;2022-07-01T06:06:24;19.10;99.90
16160;DHT22;8185;57.818;15.224;2022-07-01T06:08:51;19.20;99.90
16160;DHT22;8185;57.818;15.224;2022-07-01T06:11:18;19.20;99.90
16160;DHT22;8185;57.818;15.224;2022-07-01T06:13:47;19.30;99.90
16160;DHT22;8185;57.818;15.224;2022-07-01T06:16:15;19.40;99.90
16160;DHT22;8185;57.818;15.224;2022-07-01T06:18:42;19.40;99.90
16160;DHT22;8185;57.818;15.224;2022-07-01T06:21:09;19.60;99.90
16160;DHT22;8185;57.818;15.224;2022-07-01T06:23:36;19.80;99.90
16160;DHT22;8185;57.818;15.224;2022-07-01T06:26:04;20.00;99.90
16160;DHT22;8185;57.818;15.224;2022-07-01T06:28:31;20.10;99.90
16160;DHT22;8185;57.818;15.224;2022-07-01T06:31:00;20.00;99.90
16160;DHT22;8185;57.818;15.224;2022-07-01T06:33:28;20.10;99.90
16160;DHT22;8185;57.818;15.224;2022-07-01T06:35:56;20.20;99.90
16160;DHT22;8185;57.818;15.224;2022-07-01T06:38:24;20.20;99.90
16160;DHT22;8185;57.818;15.224;2022-07-01T06:40:52;20.30;99.90
16160;DHT22;8185;57.818;15.224;2022-07-01T06:43:36;20.50;99.90
16160;DHT22;8185;57.818;15.224;2022-07-01T06:46:06;20.60;99.90
16160;DHT22;8185;57.818;15.224;2022-07-01T06:48:33;20.70;99.90
16160;DHT22;8185;57.818;15.224;2022-07-01T06:51:01;20.80;99.90
16160;DHT22;8185;57.818;15.224;2022-07-01T06:53:29;20.90;99.90
16160;DHT22;8185;57.818;15.224;2022-07-01T06:55:57;21.20;99.90
16160;DHT22;8185;57.818;15.224;2022-07-01T06:58:24;21.30;99.90
16160;DHT22;8185;57.818;15.224;2022-07-01T07:00:51;21.40;99.90
16160;DHT22;8185;57.818;15.224;2022-07-01T07:03:20;21.50;99.90
16160;DHT22;8185;57.818;15.224;2022-07-01T07:05:47;22.10;99.90
16160;DHT22;8185;57.818;15.224;2022-07-01T07:08:15;22.50;99.90
16160;DHT22;8185;57.818;15.224;2022-07-01T07:10:42;22.80;99.90
16160;DHT22;8185;57.818;15.224;2022-07-01T07:13:09;22.60;99.90
16160;DHT22;8185;57.818;15.224;2022-07-01T07:15:36;22.40;99.90
16160;DHT22;8185;57.818;15.224;2022-07-01T07:18:07;22.20;99.90
16160;DHT22;8185;57.818;15.224;2022-07-01T07:20:36;21.90;99.90
16160;DHT22;8185;57.818;15.224;2022-07-01T07:23:05;21.80;99.90
16160;DHT22;8185;57.818;15.224;2022-07-01T07:25:32;22.00;99.90
16160;DHT22;8185;57.818;15.224;2022-07-01T07:27:59;22.10;99.90
16160;DHT22;8185;57.818;15.224;2022-07-01T07:30:27;22.10;99.90
16160;DHT22;8185;57.818;15.224;2022-07-01T07:32:54;22.00;99.90
16160;DHT22;8185;57.818;15.224;2022-07-01T07:35:21;21.90;99.90
16160;DHT22;8185;57.818;15.224;2022-07-01T07:37:50;22.00;99.90
16160;DHT22;8185;57.818;15.224;2022-07-01T07:40:18;22.20;99.90
16160;DHT22;8185;57.818;15.224;2022-07-01T07:42:46;22.10;99.90
16160;DHT22;8185;57.818;15.224;2022-07-01T07:45:14;22.50;99.90
16160;DHT22;8185;57.818;15.224;2022-07-01T07:47:43;22.40;99.90
16160;DHT22;8185;57.818;15.224;2022-07-01T07:50:11;22.60;99.90
16160;DHT22;8185;57.818;15.224;2022-07-01T07:52:39;22.80;99.90
16160;DHT22;8185;57.818;15.224;2022-07-01T07:55:09;23.00;99.90
16160;DHT22;8185;57.818;15.224;2022-07-01T07:57:37;23.10;99.90
16160;DHT22;8185;57.818;15.224;2022-07-01T08:00:06;23.30;99.90
16160;DHT22;8185;57.818;15.224;2022-07-01T08:02:34;23.40;99.90
16160;DHT22;8185;57.818;15.224;2022-07-01T08:05:01;23.00;99.90
16160;DHT22;8185;57.818;15.224;2022-07-01T08:07:29;23.00;99.90
16160;DHT22;8185;57.818;15.224;2022-07-01T08:09:56;22.90;99.90
16160;DHT22;8185;57.818;15.224;2022-07-01T08:12:25;22.70;99.90
16160;DHT22;8185;57.818;15.224;2022-07-01T08:14:52;22.70;99.90
16160;DHT22;8185;57.818;15.224;2022-07-01T08:17:20;22.40;99.90
16160;DHT22;8185;57.818;15.224;2022-07-01T08:19:47;22.60;99.90
16160;DHT22;8185;57.818;15.224;2022-07-01T08:22:15;22.70;99.90
16160;DHT22;8185;57.818;15.224;2022-07-01T08:24:43;22.70;99.90
16160;DHT22;8185;57.818;15.224;2022-07-01T08:27:10;22.60;99.90
16160;DHT22;8185;57.818;15.224;2022-07-01T08:29:39;22.60;99.90
16160;DHT22;8185;57.818;15.224;2022-07-01T08:32:07;22.30;99.90
16160;DHT22;8185;57.818;15.224;2022-07-01T08:34:35;22.70;99.90
16160;DHT22;8185;57.818;15.224;2022-07-01T08:37:03;22.90;99.90
16160;DHT22;8185;57.818;15.224;2022-07-01T08:39:31;23.40;99.90
16160;DHT22;8185;57.818;15.224;2022-07-01T08:41:58;23.70;99.90
16160;DHT22;8185;57.818;15.224;2022-07-01T08:44:25;23.80;99.90
16160;DHT22;8185;57.818;15.224;2022-07-01T08:46:54;23.90;99.90
16160;DHT22;8185;57.818;15.224;2022-07-01T08:49:22;23.90;99.90
16160;DHT22;8185;57.818;15.224;2022-07-01T08:51:50;23.80;99.90
16160;DHT22;8185;57.818;15.224;2022-07-01T08:54:17;24.10;99.90
16160;DHT22;8185;57.818;15.224;2022-07-01T08:56:44;24.00;99.90
16160;DHT22;8185;57.818;15.224;2022-07-01T08:59:13;24.50;99.90
16160;DHT22;8185;57.818;15.224;2022-07-01T09:01:56;25.00;99.90
16160;DHT22;8185;57.818;15.224;2022-07-01T09:04:24;24.50;99.90
16160;DHT22;8185;57.818;15.224;2022-07-01T09:06:53;23.90;99.90
16160;DHT22;8185;57.818;15.224;2022-07-01T09:09:26;23.60;99.90
16160;DHT22;8185;57.818;15.224;2022-07-01T09:11:54;24.00;99.90
16160;DHT22;8185;57.818;15.224;2022-07-01T09:14:24;24.40;99.90
16160;DHT22;8185;57.818;15.224;2022-07-01T09:16:52;24.40;99.90
16160;DHT22;8185;57.818;15.224;2022-07-01T09:19:23;24.00;99.90
16160;DHT22;8185;57.818;15.224;2022-07-01T09:21:52;23.80;99.90
16160;DHT22;8185;57.818;15.224;2022-07-01T09:24:24;23.50;99.90
16160;DHT22;8185;57.818;15.224;2022-07-01T09:26:53;23.40;99.90
16160;DHT22;8185;57.818;15.224;2022-07-01T09:29:20;23.40;99.90
16160;DHT22;8185;57.818;15.224;2022-07-01T09:31:52;23.90;99.90
16160;DHT22;8185;57.818;15.224;2022-07-01T09:34:19;24.40;99.90
16160;DHT22;8185;57.818;15.224;2022-07-01T09:36:57;24.60;99.90
16160;DHT22;8185;57.818;15.224;2022-07-01T09:39:25;24.40;99.90
16160;DHT22;8185;57.818;15.224;2022-07-01T09:41:54;24.50;99.90
16160;DHT22;8185;57.818;15.224;2022-07-01T09:44:22;24.40;99.90
16160;DHT22;8185;57.818;15.224;2022-07-01T09:46:54;24.40;99.90
16160;DHT22;8185;57.818;15.224;2022-07-01T09:49:22;24.80;99.90
16160;DHT22;8185;57.818;15.224;2022-07-01T09:51:50;24.70;99.90
16160;DHT22;8185;57.818;15.224;2022-07-01T09:54:20;24.60;99.90
16160;DHT22;8185;57.818;15.224;2022-07-01T09:56:47;24.80;99.90
16160;DHT22;8185;57.818;15.224;2022-07-01T09:59:14;25.10;99.90
16160;DHT22;8185;57.818;15.224;2022-07-01T10:01:44;25.10;99.90
16160;DHT22;8185;57.818;15.224;2022-07-01T10:04:12;25.10;99.90
16160;DHT22;8185;57.818;15.224;2022-07-01T10:06:52;25.00;99.90
16160;DHT22;8185;57.818;15.224;2022-07-01T10:09:46;25.20;99.90
16160;DHT22;8185;57.818;15.224;2022-07-01T10:12:34;25.40;99.90
16160;DHT22;8185;57.818;15.224;2022-07-01T10:15:04;25.90;99.90
16160;DHT22;8185;57.818;15.224;2022-07-01T10:17:35;25.70;99.90
16160;DHT22;8185;57.818;15.224;2022-07-01T10:20:09;25.90;99.90
16160;DHT22;8185;57.818;15.224;2022-07-01T10:22:37;25.60;99.90
16160;DHT22;8185;57.818;15.224;2022-07-01T10:25:38;25.90;99.90
16160;DHT22;8185;57.818;15.224;2022-07-01T10:28:13;25.90;99.90
16160;DHT22;8185;57.818;15.224;2022-07-01T10:30:52;26.00;99.90
16160;DHT22;8185;57.818;15.224;2022-07-01T10:33:46;26.40;99.90
16160;DHT22;8185;57.818;15.224;2022-07-01T10:36:23;26.70;99.90
16160;DHT22;8185;57.818;15.224;2022-07-01T10:39:16;27.10;99.90
16160;DHT22;8185;57.818;15.224;2022-07-01T10:42:00;26.80;99.90
16160;DHT22;8185;57.818;15.224;2022-07-01T10:44:28;27.00;99.90
16160;DHT22;8185;57.818;15.224;2022-07-01T10:47:03;26.40;99.90
16160;DHT22;8185;57.818;15.224;2022-07-01T10:49:53;26.60;99.90
16160;DHT22;8185;57.818;15.224;2022-07-01T10:52:21;26.80;99.90
16160;DHT22;8185;57.818;15.224;2022-07-01T10:54:51;26.90;99.90
16160;DHT22;8185;57.818;15.224;2022-07-01T10:57:34;26.90;99.90
16160;DHT22;8185;57.818;15.224;2022-07-01T11:00:24;27.00;99.90
16160;DHT22;8185;57.818;15.224;2022-07-01T11:03:09;26.90;99.90
16160;DHT22;8185;57.818;15.224;2022-07-01T11:05:37;26.70;99.90
16160;DHT22;8185;57.818;15.224;2022-07-01T11:08:06;26.60;99.90
16160;DHT22;8185;57.818;15.224;2022-07-01T11:10:33;26.80;99.90
16160;DHT22;8185;57.818;15.224;2022-07-01T11:13:03;27.50;99.90
16160;DHT22;8185;57.818;15.224;2022-07-01T11:15:31;27.90;99.20
16160;DHT22;8185;57.818;15.224;2022-07-01T11:17:59;27.90;99.90
16160;DHT22;8185;57.818;15.224;2022-07-01T11:20:29;28.10;99.90
16160;DHT22;8185;57.818;15.224;2022-07-01T11:22:57;27.80;99.90
16160;DHT22;8185;57.818;15.224;2022-07-01T11:25:25;28.10;97.80
16160;DHT22;8185;57.818;15.224;2022-07-01T11:27:53;27.80;98.10
16160;DHT22;8185;57.818;15.224;2022-07-01T11:30:22;28.00;98.70
16160;DHT22;8185;57.818;15.224;2022-07-01T11:32:51;28.50;98.90
16160;DHT22;8185;57.818;15.224;2022-07-01T11:35:21;29.40;97.00
16160;DHT22;8185;57.818;15.224;2022-07-01T11:38:08;30.00;95.40
16160;DHT22;8185;57.818;15.224;2022-07-01T11:40:53;30.90;95.90
16160;DHT22;8185;57.818;15.224;2022-07-01T11:43:23;30.90;92.40
16160;DHT22;8185;57.818;15.224;2022-07-01T11:45:52;30.40;92.20
16160;DHT22;8185;57.818;15.224;2022-07-01T11:48:35;29.40;93.70
16160;DHT22;8185;57.818;15.224;2022-07-01T11:51:09;29.40;95.70
16160;DHT22;8185;57.818;15.224;2022-07-01T11:53:39;29.60;93.70
16160;DHT22;8185;57.818;15.224;2022-07-01T11:56:06;30.70;92.60
16160;DHT22;8185;57.818;15.224;2022-07-01T11:58:48;30.80;92.00
16160;DHT22;8185;57.818;15.224;2022-07-01T12:01:26;31.10;91.80
16160;DHT22;8185;57.818;15.224;2022-07-01T12:03:56;31.10;90.80
16160;DHT22;8185;57.818;15.224;2022-07-01T12:06:24;31.10;91.10
16160;DHT22;8185;57.818;15.224;2022-07-01T12:08:52;31.70;90.30
16160;DHT22;8185;57.818;15.224;2022-07-01T12:11:23;32.70;90.70
16160;DHT22;8185;57.818;15.224;2022-07-01T12:13:52;31.70;90.10
16160;DHT22;8185;57.818;15.224;2022-07-01T12:16:19;31.60;88.80
16160;DHT22;8185;57.818;15.224;2022-07-01T12:18:57;31.50;88.10
16160;DHT22;8185;57.818;15.224;2022-07-01T12:21:26;31.70;88.10
16160;DHT22;8185;57.818;15.224;2022-07-01T12:24:05;31.90;90.50
16160;DHT22;8185;57.818;15.224;2022-07-01T12:26:32;31.40;86.70
16160;DHT22;8185;57.818;15.224;2022-07-01T12:28:59;31.70;84.80
16160;DHT22;8185;57.818;15.224;2022-07-01T12:31:27;31.90;86.80
16160;DHT22;8185;57.818;15.224;2022-07-01T12:33:56;32.70;87.10
16160;DHT22;8185;57.818;15.224;2022-07-01T12:36:23;32.50;84.20
16160;DHT22;8185;57.818;15.224;2022-07-01T12:39:01;32.10;85.00
16160;DHT22;8185;57.818;15.224;2022-07-01T12:41:30;30.50;85.40
16160;DHT22;8185;57.818;15.224;2022-07-01T12:43:59;28.90;88.40
16160;DHT22;8185;57.818;15.224;2022-07-01T12:46:27;28.90;90.80
16160;DHT22;8185;57.818;15.224;2022-07-01T12:48:57;28.70;91.00
16160;DHT22;8185;57.818;15.224;2022-07-01T12:51:31;28.60;93.50
16160;DHT22;8185;57.818;15.224;2022-07-01T12:53:59;29.00;93.60
16160;DHT22;8185;57.818;15.224;2022-07-01T12:56:27;30.70;92.20
16160;DHT22;8185;57.818;15.224;2022-07-01T12:58:55;31.20;87.30
16160;DHT22;8185;57.818;15.224;2022-07-01T13:01:23;31.90;88.30
16160;DHT22;8185;57.818;15.224;2022-07-01T13:03:51;32.40;82.40
16160;DHT22;8185;57.818;15.224;2022-07-01T13:06:20;31.90;84.70
16160;DHT22;8185;57.818;15.224;2022-07-01T13:08:47;32.00;82.70
16160;DHT22;8185;57.818;15.224;2022-07-01T13:11:14;32.40;82.10
16160;DHT22;8185;57.818;15.224;2022-07-01T13:13:41;33.20;81.80
16160;DHT22;8185;57.818;15.224;2022-07-01T13:16:09;33.90;79.80
16160;DHT22;8185;57.818;15.224;2022-07-01T13:18:36;33.80;78.50
16160;DHT22;8185;57.818;15.224;2022-07-01T13:21:03;33.90;78.80
16160;DHT22;8185;57.818;15.224;2022-07-01T13:23:35;34.20;75.70
16160;DHT22;8185;57.818;15.224;2022-07-01T13:26:02;34.90;74.60
16160;DHT22;8185;57.818;15.224;2022-07-01T13:28:30;35.60;72.50
16160;DHT22;8185;57.818;15.224;2022-07-01T13:30:57;35.00;72.40
16160;DHT22;8185;57.818;15.224;2022-07-01T13:33:24;34.30;76.00
16160;DHT22;8185;57.818;15.224;2022-07-01T13:35:51;34.30;73.30
16160;DHT22;8185;57.818;15.224;2022-07-01T13:38:19;34.30;70.50
16160;DHT22;8185;57.818;15.224;2022-07-01T13:40:48;33.80;73.60
16160;DHT22;8185;57.818;15.224;2022-07-01T13:43:15;33.90;77.70
16160;DHT22;8185;57.818;15.224;2022-07-01T13:45:44;33.40;76.50
16160;DHT22;8185;57.818;15.224;2022-07-01T13:48:11;33.60;78.40
16160;DHT22;8185;57.818;15.224;2022-07-01T13:50:38;33.30;77.00
16160;DHT22;8185;57.818;15.224;2022-07-01T13:53:05;33.70;79.00
16160;DHT22;8185;57.818;15.224;2022-07-01T13:55:33;34.10;74.70
16160;DHT22;8185;57.818;15.224;2022-07-01T13:58:01;35.40;75.90
16160;DHT22;8185;57.818;15.224;2022-07-01T14:00:29;36.10;72.10
16160;DHT22;8185;57.818;15.224;2022-07-01T14:02:57;35.00;69.70
16160;DHT22;8185;57.818;15.224;2022-07-01T14:05:24;33.70;73.20
16160;DHT22;8185;57.818;15.224;2022-07-01T14:07:51;32.20;75.00
16160;DHT22;8185;57.818;15.224;2022-07-01T14:10:19;32.30;81.00
16160;DHT22;8185;57.818;15.224;2022-07-01T14:12:46;33.50;78.20
16160;DHT22;8185;57.818;15.224;2022-07-01T14:15:14;34.70;74.60
16160;DHT22;8185;57.818;15.224;2022-07-01T14:17:42;34.60;72.80
16160;DHT22;8185;57.818;15.224;2022-07-01T14:20:11;33.80;74.20
16160;DHT22;8185;57.818;15.224;2022-07-01T14:22:38;32.70;75.60
16160;DHT22;8185;57.818;15.224;2022-07-01T14:25:07;31.70;77.90
16160;DHT22;8185;57.818;15.224;2022-07-01T14:27:36;30.80;80.80
16160;DHT22;8185;57.818;15.224;2022-07-01T14:30:04;32.20;84.20
16160;DHT22;8185;57.818;15.224;2022-07-01T14:32:34;30.90;85.40
16160;DHT22;8185;57.818;15.224;2022-07-01T14:35:01;30.80;86.90
16160;DHT22;8185;57.818;15.224;2022-07-01T14:37:29;31.50;83.30
16160;DHT22;8185;57.818;15.224;2022-07-01T14:39:56;32.90;82.60
16160;DHT22;8185;57.818;15.224;2022-07-01T14:42:25;31.60;81.70
16160;DHT22;8185;57.818;15.224;2022-07-01T14:44:52;31.20;79.50
16160;DHT22;8185;57.818;15.224;2022-07-01T14:47:20;30.80;85.50
16160;DHT22;8185;57.818;15.224;2022-07-01T14:49:49;30.30;87.00
16160;DHT22;8185;57.818;15.224;2022-07-01T14:52:20;31.40;84.60
16160;DHT22;8185;57.818;15.224;2022-07-01T14:54:48;31.90;82.40
16160;DHT22;8185;57.818;15.224;2022-07-01T14:57:16;32.00;78.70
16160;DHT22;8185;57.818;15.224;2022-07-01T14:59:43;31.90;78.30
16160;DHT22;8185;57.818;15.224;2022-07-01T15:02:11;32.30;76.50
16160;DHT22;8185;57.818;15.224;2022-07-01T15:04:38;33.60;76.60
16160;DHT22;8185;57.818;15.224;2022-07-01T15:07:08;33.00;74.20
16160;DHT22;8185;57.818;15.224;2022-07-01T15:09:35;32.20;76.90
16160;DHT22;8185;57.818;15.224;2022-07-01T15:12:03;32.80;78.10
16160;DHT22;8185;57.818;15.224;2022-07-01T15:14:31;32.90;74.30
16160;DHT22;8185;57.818;15.224;2022-07-01T15:16:58;33.60;76.00
16160;DHT22;8185;57.818;15.224;2022-07-01T15:19:26;33.60;77.10
16160;DHT22;8185;57.818;15.224;2022-07-01T15:21:53;34.40;75.80
16160;DHT22;8185;57.818;15.224;2022-07-01T15:24:23;35.70;71.80
16160;DHT22;8185;57.818;15.224;2022-07-01T15:26:52;34.90;71.40
16160;DHT22;8185;57.818;15.224;2022-07-01T15:29:19;35.30;75.50
16160;DHT22;8185;57.818;15.224;2022-07-01T15:31:50;35.70;71.40
16160;DHT22;8185;57.818;15.224;2022-07-01T15:34:17;36.10;68.00
16160;DHT22;8185;57.818;15.224;2022-07-01T15:36:45;36.30;67.80
16160;DHT22;8185;57.818;15.224;2022-07-01T15:39:12;36.80;68.30
16160;DHT22;8185;57.818;15.224;2022-07-01T15:41:42;36.80;68.90